createdAt,value
2019-01-26T00:00:31.839Z,11.43
2019-01-26T00:03:01.299Z,11.43
2019-01-26T00:05:33.782Z,9.60
2019-01-26T00:08:03.972Z,11.07
2019-01-26T00:10:33.239Z,16.17
2019-01-26T00:13:05.777Z,7.53
2019-01-26T00:15:37.898Z,10.30
2019-01-26T00:18:08.589Z,12.37
2019-01-26T00:20:38.038Z,10.87
2019-01-26T00:23:07.437Z,14.00
2019-01-26T00:25:40.797Z,6.90
2019-01-26T00:28:11.926Z,7.10
2019-01-26T00:30:41.276Z,12.60
2019-01-26T00:33:16.338Z,8.90
2019-01-26T00:35:46.985Z,10.93
2019-01-26T00:38:16.101Z,9.03
2019-01-26T00:40:47.187Z,9.03
2019-01-26T00:43:16.851Z,13.33
2019-01-26T00:45:46.647Z,9.67
2019-01-26T00:48:16.830Z,10.27
2019-01-26T00:50:48.844Z,12.10
2019-01-26T00:53:19.740Z,7.37
2019-01-26T00:55:53.886Z,9.30
2019-01-26T00:58:24.658Z,7.40
2019-01-26T01:00:54.808Z,13.13
2019-01-26T01:03:27.360Z,9.83
2019-01-26T01:05:56.781Z,11.07
2019-01-26T01:08:25.904Z,7.30
2019-01-26T01:10:57.217Z,9.77
2019-01-26T01:13:28.488Z,14.13
2019-01-26T01:15:58.444Z,7.23
2019-01-26T01:18:27.574Z,9.50
2019-01-26T01:20:58.527Z,10.60
2019-01-26T01:23:29.710Z,7.97
2019-01-26T01:26:00.230Z,6.67
2019-01-26T01:28:29.393Z,10.40
2019-01-26T01:31:00.473Z,8.50
2019-01-26T01:33:29.514Z,9.40
2019-01-26T01:36:00.094Z,8.13
2019-01-26T01:38:31.860Z,7.63
2019-01-26T01:41:05.091Z,7.00
2019-01-26T01:43:42.965Z,9.43
2019-01-26T01:46:14.827Z,7.17
2019-01-26T01:48:43.987Z,8.60
2019-01-26T01:51:13.172Z,7.80
2019-01-26T01:53:46.701Z,7.57
2019-01-26T01:56:19.038Z,9.83
2019-01-26T01:58:48.627Z,8.60
2019-01-26T02:01:23.584Z,13.50
2019-01-26T02:03:52.715Z,10.37
2019-01-26T02:06:23.680Z,15.67
2019-01-26T02:08:54.396Z,7.13
2019-01-26T02:11:24.334Z,10.90
2019-01-26T02:13:53.479Z,5.60
2019-01-26T02:16:22.602Z,5.40
2019-01-26T02:18:51.762Z,8.60
2019-01-26T02:21:20.893Z,7.97
2019-01-26T02:23:50.081Z,6.93
2019-01-26T02:26:19.232Z,7.70
2019-01-26T02:28:50.150Z,8.33
2019-01-26T02:31:24.834Z,8.87
2019-01-26T02:33:54.171Z,8.63
2019-01-26T02:36:24.959Z,8.40
2019-01-26T02:38:54.129Z,9.80
2019-01-26T02:41:24.578Z,5.93
2019-01-26T02:43:55.049Z,6.40
2019-01-26T02:46:25.465Z,6.27
2019-01-26T02:48:54.705Z,5.47
2019-01-26T02:51:25.412Z,7.03
2019-01-26T02:54:16.505Z,6.60
2019-01-26T02:56:45.601Z,7.10
2019-01-26T02:59:17.064Z,10.53
2019-01-26T03:01:49.424Z,8.03
2019-01-26T03:04:25.127Z,8.90
2019-01-26T03:06:55.974Z,6.93
2019-01-26T03:09:26.119Z,7.73
2019-01-26T03:11:56.648Z,6.77
2019-01-26T03:14:32.020Z,8.80
2019-01-26T03:17:06.292Z,6.60
2019-01-26T03:19:38.607Z,7.03
2019-01-26T03:22:08.170Z,7.60
2019-01-26T03:24:37.285Z,6.83
2019-01-26T03:27:07.709Z,8.03
2019-01-26T03:29:43.213Z,5.00
2019-01-26T03:32:12.389Z,5.10
2019-01-26T03:34:41.484Z,7.43
2019-01-26T03:37:10.628Z,7.37
2019-01-26T03:39:39.756Z,6.93
2019-01-26T03:42:08.868Z,6.27
2019-01-26T03:44:42.397Z,6.57
2019-01-26T03:47:13.797Z,6.00
2019-01-26T03:49:44.923Z,6.37
2019-01-26T03:52:14.035Z,6.27
2019-01-26T03:54:45.042Z,6.07
2019-01-26T03:57:14.987Z,4.07
2019-01-26T03:59:44.194Z,5.37
2019-01-26T04:02:13.606Z,3.57
2019-01-26T04:04:43.461Z,2.70
2019-01-26T04:07:12.739Z,7.73
2019-01-26T04:09:42.354Z,6.27
2019-01-26T04:12:12.186Z,7.27
2019-01-26T04:14:48.826Z,4.27
2019-01-26T04:17:25.801Z,5.70
2019-01-26T04:19:52.599Z,3.07
2019-01-26T04:22:21.724Z,5.73
2019-01-26T04:24:52.538Z,7.23
2019-01-26T04:27:21.849Z,4.50
2019-01-26T04:29:51.529Z,6.87
2019-01-26T04:32:20.750Z,8.17
2019-01-26T04:34:50.034Z,6.50
2019-01-26T04:37:19.153Z,4.07
2019-01-26T04:39:48.256Z,8.47
2019-01-26T04:42:19.034Z,7.20
2019-01-26T04:44:48.410Z,8.47
2019-01-26T04:47:17.517Z,5.90
2019-01-26T04:49:47.826Z,6.50
2019-01-26T04:52:19.036Z,8.30
2019-01-26T04:54:50.366Z,5.73
2019-01-26T04:57:19.517Z,6.10
2019-01-26T04:59:48.737Z,4.97
2019-01-26T05:02:22.053Z,3.97
2019-01-26T05:04:51.708Z,6.30
2019-01-26T05:07:21.386Z,4.70
2019-01-26T05:09:55.296Z,5.33
2019-01-26T05:12:26.910Z,4.13
2019-01-26T05:14:58.120Z,4.07
2019-01-26T05:17:28.391Z,5.70
2019-01-26T05:19:57.513Z,5.40
2019-01-26T05:22:29.269Z,4.57
2019-01-26T05:25:00.021Z,3.70
2019-01-26T05:27:29.192Z,3.80
2019-01-26T05:29:59.363Z,4.93
2019-01-26T05:32:29.764Z,5.10
2019-01-26T05:34:59.325Z,4.57
2019-01-26T05:37:29.379Z,5.33
2019-01-26T05:39:58.539Z,3.07
2019-01-26T05:42:28.103Z,4.70
2019-01-26T05:44:57.367Z,3.43
2019-01-26T05:47:26.517Z,5.40
2019-01-26T05:49:59.038Z,3.13
2019-01-26T05:52:29.789Z,2.00
2019-01-26T05:55:00.475Z,4.80
2019-01-26T05:57:30.044Z,3.60
2019-01-26T06:00:00.745Z,3.80
2019-01-26T06:02:30.177Z,2.73
2019-01-26T06:04:59.613Z,5.50
2019-01-26T06:07:32.627Z,1.53
2019-01-26T06:10:03.750Z,2.53
2019-01-26T06:12:33.300Z,3.30
2019-01-26T06:15:02.744Z,3.40
2019-01-26T06:17:32.994Z,2.10
2019-01-26T06:20:07.007Z,3.23
2019-01-26T06:22:42.171Z,1.80
2019-01-26T06:25:12.875Z,2.97
2019-01-26T06:27:46.187Z,3.73
2019-01-26T06:30:25.838Z,4.50
2019-01-26T06:32:55.133Z,3.57
2019-01-26T06:35:33.849Z,4.33
2019-01-26T06:38:02.966Z,4.93
2019-01-26T06:40:32.301Z,3.40
2019-01-26T06:43:02.502Z,2.80
2019-01-26T06:45:31.617Z,3.00
2019-01-26T06:48:02.915Z,4.30
2019-01-26T06:50:35.255Z,3.00
2019-01-26T06:53:04.410Z,3.13
2019-01-26T06:55:39.436Z,5.47
2019-01-26T06:58:08.611Z,2.53
2019-01-26T07:00:37.688Z,2.10
2019-01-26T07:03:08.478Z,2.93
2019-01-26T07:06:14.870Z,3.90
2019-01-26T07:08:45.223Z,3.77
2019-01-26T07:11:14.779Z,2.20
2019-01-26T07:13:50.345Z,5.67
2019-01-26T07:16:28.857Z,3.90
2019-01-26T07:18:57.969Z,8.97
2019-01-26T07:21:27.078Z,3.30
2019-01-26T07:23:57.427Z,4.67
2019-01-26T07:26:29.812Z,4.07
2019-01-26T07:29:02.186Z,4.03
2019-01-26T07:31:32.622Z,3.00
2019-01-26T07:34:06.232Z,3.30
2019-01-26T07:36:35.819Z,6.40
2019-01-26T07:39:13.122Z,4.03
2019-01-26T07:41:42.586Z,4.40
2019-01-26T07:44:11.974Z,5.67
2019-01-26T07:46:44.642Z,6.93
2019-01-26T07:49:15.591Z,5.80
2019-01-26T07:51:47.791Z,3.60
2019-01-26T07:54:20.446Z,5.77
2019-01-26T07:56:52.825Z,3.03
2019-01-26T07:59:21.905Z,3.77
2019-01-26T08:01:51.242Z,3.07
2019-01-26T08:04:21.416Z,4.70
2019-01-26T08:06:51.663Z,5.87
2019-01-26T08:09:26.406Z,3.47
2019-01-26T08:11:57.295Z,5.33
2019-01-26T08:14:26.497Z,5.13
2019-01-26T08:16:55.679Z,4.10
2019-01-26T08:19:29.062Z,2.43
2019-01-26T08:22:00.504Z,3.10
2019-01-26T08:24:29.619Z,2.80
2019-01-26T08:29:45.015Z,3.20
2019-01-26T08:32:18.246Z,6.70
2019-01-26T08:34:47.286Z,5.07
2019-01-26T08:37:16.422Z,4.90
2019-01-26T08:39:48.149Z,6.70
2019-01-26T08:42:20.597Z,4.57
2019-01-26T08:44:57.105Z,4.63
2019-01-26T08:47:26.334Z,4.43
2019-01-26T08:49:55.485Z,4.67
2019-01-26T08:52:24.705Z,5.30
2019-01-26T08:54:56.737Z,5.30
2019-01-26T08:57:27.425Z,4.13
2019-01-26T08:59:56.657Z,5.50
2019-01-26T09:02:50.727Z,7.43
2019-01-26T09:05:22.930Z,4.47
2019-01-26T09:07:55.508Z,5.73
2019-01-26T09:10:24.971Z,4.50
2019-01-26T09:12:55.852Z,4.57
2019-01-26T09:15:25.040Z,6.63
2019-01-26T09:17:54.140Z,6.57
2019-01-26T09:20:30.271Z,4.30
2019-01-26T09:22:55.923Z,4.07
2019-01-26T09:25:25.222Z,7.03
2019-01-26T09:27:57.874Z,7.97
2019-01-26T09:30:31.059Z,6.00
2019-01-26T09:33:02.134Z,6.43
2019-01-26T09:35:38.677Z,5.90
2019-01-26T09:38:10.787Z,10.27
2019-01-26T09:40:44.897Z,7.53
2019-01-26T09:43:25.512Z,6.33
2019-01-26T09:45:54.652Z,9.83
2019-01-26T09:48:23.841Z,4.80
2019-01-26T09:50:52.939Z,8.17
2019-01-26T09:53:23.193Z,8.33
2019-01-26T09:55:52.440Z,5.97
2019-01-26T09:58:26.920Z,6.00
2019-01-26T10:00:56.052Z,6.90
2019-01-26T10:03:25.231Z,7.00
2019-01-26T10:05:55.641Z,5.70
2019-01-26T10:08:26.908Z,5.40
2019-01-26T10:10:57.462Z,5.03
2019-01-26T10:13:26.497Z,8.00
2019-01-26T10:15:56.087Z,5.23
2019-01-26T10:18:28.219Z,4.93
2019-01-26T10:20:57.420Z,5.20
2019-01-26T10:23:26.514Z,5.33
2019-01-26T10:25:55.795Z,5.20
2019-01-26T10:28:24.901Z,5.90
2019-01-26T10:31:04.769Z,4.50
2019-01-26T10:33:34.992Z,4.07
2019-01-26T10:36:23.038Z,3.83
2019-01-26T10:39:00.494Z,4.20
2019-01-26T10:41:48.674Z,3.00
2019-01-26T10:44:31.320Z,3.63
2019-01-26T10:47:01.827Z,3.23
2019-01-26T10:49:36.713Z,6.47
2019-01-26T10:52:08.351Z,3.53
2019-01-26T10:54:37.531Z,3.77
2019-01-26T10:57:08.570Z,3.70
2019-01-26T10:59:37.630Z,3.97
2019-01-26T11:02:11.813Z,2.83
2019-01-26T11:04:42.140Z,3.30
2019-01-26T11:07:16.054Z,5.30
2019-01-26T11:09:47.955Z,2.30
2019-01-26T11:12:19.028Z,2.63
2019-01-26T11:14:54.519Z,3.97
2019-01-26T11:17:25.921Z,1.90
2019-01-26T11:19:56.640Z,4.30
2019-01-26T11:22:25.764Z,4.17
2019-01-26T11:24:58.437Z,2.97
2019-01-26T11:27:28.932Z,3.70
2019-01-26T11:29:58.808Z,4.17
2019-01-26T11:32:28.146Z,4.87
2019-01-26T11:34:57.282Z,4.27
2019-01-26T11:37:26.841Z,4.60
2019-01-26T11:40:08.786Z,2.23
2019-01-26T11:42:46.529Z,5.60
2019-01-26T11:45:24.809Z,6.93
2019-01-26T11:47:54.336Z,2.53
2019-01-26T11:50:35.069Z,3.03
2019-01-26T11:53:04.259Z,2.73
2019-01-26T11:55:48.810Z,3.50
2019-01-26T11:58:18.008Z,4.50
2019-01-26T12:01:04.343Z,2.63
2019-01-26T12:03:49.489Z,5.70
2019-01-26T12:06:24.577Z,4.13
2019-01-26T12:08:56.225Z,4.30
2019-01-26T12:11:27.420Z,2.80
2019-01-26T12:13:56.349Z,4.20
2019-01-26T12:16:27.114Z,3.07
2019-01-26T12:18:56.403Z,4.77
2019-01-26T12:21:25.727Z,6.30
2019-01-26T12:23:54.900Z,4.20
2019-01-26T12:26:26.311Z,3.20
2019-01-26T12:28:58.828Z,2.73
2019-01-26T12:31:30.250Z,2.90
2019-01-26T12:34:01.536Z,3.60
2019-01-26T12:36:30.922Z,3.23
2019-01-26T12:39:00.042Z,3.70
2019-01-26T12:41:30.258Z,4.30
2019-01-26T12:44:03.522Z,5.53
2019-01-26T12:46:32.631Z,4.20
2019-01-26T12:49:01.889Z,5.83
2019-01-26T12:51:36.927Z,5.43
2019-01-26T12:54:10.782Z,8.27
2019-01-26T12:56:40.116Z,4.57
2019-01-26T12:59:12.475Z,5.10
2019-01-26T13:01:41.859Z,6.90
2019-01-26T13:04:12.375Z,6.77
2019-01-26T13:06:45.924Z,5.77
2019-01-26T13:09:16.151Z,4.57
2019-01-26T13:11:46.082Z,3.00
2019-01-26T13:14:16.376Z,5.20
2019-01-26T13:16:48.386Z,2.60
2019-01-26T13:19:17.630Z,4.40
2019-01-26T13:21:55.959Z,6.43
2019-01-26T13:24:25.114Z,6.97
2019-01-26T13:26:54.400Z,3.73
2019-01-26T13:29:25.137Z,2.87
2019-01-26T13:31:54.441Z,4.80
2019-01-26T13:34:23.534Z,4.60
2019-01-26T13:36:54.310Z,7.50
2019-01-26T13:39:24.242Z,3.13
2019-01-26T13:41:55.824Z,3.93
2019-01-26T13:44:26.870Z,5.60
2019-01-26T13:46:56.097Z,4.53
2019-01-26T13:49:30.309Z,8.97
2019-01-26T13:52:02.012Z,6.77
2019-01-26T13:54:30.817Z,6.33
2019-01-26T13:57:01.070Z,3.63
2019-01-26T13:59:31.385Z,5.73
2019-01-26T14:02:00.988Z,4.87
2019-01-26T14:04:34.383Z,7.23
2019-01-26T14:07:06.890Z,4.70
2019-01-26T14:09:42.027Z,6.30
2019-01-26T14:12:11.251Z,3.80
2019-01-26T14:14:43.788Z,4.33
2019-01-26T14:17:12.881Z,3.97
2019-01-26T14:19:51.018Z,3.50
2019-01-26T14:22:15.500Z,3.73
2019-01-26T14:24:44.656Z,3.63
2019-01-26T14:27:15.046Z,4.20
2019-01-26T14:29:47.785Z,4.27
2019-01-26T14:32:22.756Z,3.13
2019-01-26T14:34:51.883Z,4.60
2019-01-26T14:37:21.343Z,4.83
2019-01-26T14:39:53.113Z,3.47
2019-01-26T14:42:25.394Z,3.23
2019-01-26T14:44:54.577Z,4.50
2019-01-26T14:47:30.663Z,4.07
2019-01-26T14:50:06.985Z,6.47
2019-01-26T14:52:38.812Z,4.47
2019-01-26T14:55:29.395Z,4.60
2019-01-26T14:58:00.119Z,3.30
2019-01-26T15:00:47.534Z,4.43
2019-01-26T15:03:16.637Z,4.53
2019-01-26T15:05:45.998Z,4.63
2019-01-26T15:08:15.413Z,4.77
2019-01-26T15:10:49.001Z,3.53
2019-01-26T15:13:24.201Z,3.33
2019-01-26T15:15:56.691Z,4.00
2019-01-26T15:18:25.816Z,3.77
2019-01-26T15:20:57.401Z,4.73
2019-01-26T15:23:26.517Z,9.10
2019-01-26T15:25:58.812Z,8.17
2019-01-26T15:28:31.821Z,5.27
2019-01-26T15:31:01.470Z,7.30
2019-01-26T15:33:32.183Z,6.00
2019-01-26T15:36:01.339Z,5.80
2019-01-26T15:38:30.460Z,3.80
2019-01-26T15:41:00.892Z,5.70
2019-01-26T15:43:30.536Z,4.53
2019-01-26T15:45:59.653Z,4.60
2019-01-26T15:48:30.109Z,3.90
2019-01-26T15:51:00.046Z,3.60
2019-01-26T15:53:39.165Z,3.10
2019-01-26T15:56:03.880Z,3.67
2019-01-26T15:58:34.262Z,3.17
2019-01-26T16:01:06.049Z,6.63
2019-01-26T16:03:36.909Z,7.47
2019-01-26T16:06:11.156Z,3.90
2019-01-26T16:08:41.196Z,7.53
2019-01-26T16:11:11.687Z,6.00
2019-01-26T16:13:40.775Z,5.10
2019-01-26T16:16:11.091Z,4.03
2019-01-26T16:18:41.480Z,7.00
2019-01-26T16:21:10.915Z,6.70
2019-01-26T16:23:42.600Z,4.10
2019-01-26T16:26:15.709Z,5.13
2019-01-26T16:28:44.857Z,6.57
2019-01-26T16:31:13.957Z,6.77
2019-01-26T16:33:43.452Z,6.93
2019-01-26T16:36:15.389Z,9.30
2019-01-26T16:38:46.693Z,9.43
2019-01-26T16:41:21.023Z,8.10
2019-01-26T16:43:50.182Z,4.27
2019-01-26T16:46:20.527Z,4.00
2019-01-26T16:48:52.651Z,4.40
2019-01-26T16:51:26.108Z,4.20
2019-01-26T16:54:03.282Z,4.37
2019-01-26T16:56:33.553Z,4.33
2019-01-26T16:59:08.180Z,4.27
2019-01-26T17:01:37.508Z,4.27
2019-01-26T17:04:08.114Z,4.27
2019-01-26T17:06:37.624Z,2.93
2019-01-26T17:09:13.235Z,3.10
2019-01-26T17:11:44.380Z,2.93
2019-01-26T17:14:13.651Z,5.20
2019-01-26T17:16:42.861Z,4.47
2019-01-26T17:19:13.894Z,6.20
2019-01-26T17:21:43.321Z,3.83
2019-01-26T17:24:12.528Z,3.47
2019-01-26T17:26:44.028Z,2.60
2019-01-26T17:29:13.166Z,4.53
2019-01-26T17:31:43.561Z,2.70
2019-01-26T17:34:14.346Z,3.17
2019-01-26T17:36:45.642Z,4.03
2019-01-26T17:39:19.154Z,4.97
2019-01-26T17:41:51.421Z,3.93
2019-01-26T17:44:20.553Z,3.70
2019-01-26T17:46:50.948Z,4.33
2019-01-26T17:49:21.494Z,4.80
2019-01-26T17:51:54.307Z,2.90
2019-01-26T17:54:25.164Z,11.10
2019-01-26T17:56:58.993Z,5.33
2019-01-26T17:59:28.084Z,3.40
2019-01-26T18:01:57.657Z,5.20
2019-01-26T18:04:26.802Z,3.47
2019-01-26T18:06:56.073Z,3.47
2019-01-26T18:09:26.499Z,3.07
2019-01-26T18:12:00.172Z,4.37
2019-01-26T18:14:29.294Z,3.87
2019-01-26T18:16:58.405Z,5.57
2019-01-26T18:19:28.757Z,4.30
2019-01-26T18:22:01.516Z,4.63
2019-01-26T18:24:30.715Z,4.80
2019-01-26T18:27:01.471Z,4.10
2019-01-26T18:29:30.642Z,6.73
2019-01-26T18:31:59.752Z,3.97
2019-01-26T18:34:28.893Z,3.13
2019-01-26T18:36:58.178Z,3.00
2019-01-26T18:39:28.947Z,5.40
2019-01-26T18:41:58.107Z,2.97
2019-01-26T18:44:28.875Z,4.80
2019-01-26T18:46:58.069Z,6.20
2019-01-26T18:49:27.887Z,7.60
2019-01-26T18:52:00.091Z,6.10
2019-01-26T18:54:29.209Z,4.80
2019-01-26T18:56:58.488Z,6.23
2019-01-26T18:59:27.592Z,4.47
2019-01-26T19:02:02.940Z,7.03
2019-01-26T19:04:43.079Z,5.03
2019-01-26T19:07:15.076Z,3.77
2019-01-26T19:09:46.332Z,6.13
2019-01-26T19:12:21.961Z,5.13
2019-01-26T19:14:55.265Z,4.00
2019-01-26T19:17:29.563Z,6.23
2019-01-26T19:19:58.871Z,6.40
2019-01-26T19:22:27.997Z,8.43
2019-01-26T19:24:59.011Z,6.87
2019-01-26T19:27:28.108Z,5.97
2019-01-26T19:29:58.684Z,5.93
2019-01-26T19:32:34.720Z,6.60
2019-01-26T19:35:06.847Z,4.83
2019-01-26T19:37:38.391Z,5.03
2019-01-26T19:40:11.374Z,6.00
2019-01-26T19:42:40.517Z,7.47
2019-01-26T19:45:13.981Z,6.67
2019-01-26T19:47:46.991Z,4.20
2019-01-26T19:50:20.646Z,4.97
2019-01-26T19:52:56.672Z,5.73
2019-01-26T19:55:26.271Z,6.57
2019-01-26T19:57:57.875Z,4.40
2019-01-26T20:00:29.928Z,7.13
2019-01-26T20:02:59.335Z,5.83
2019-01-26T20:05:30.345Z,3.87
2019-01-26T20:08:01.026Z,7.63
2019-01-26T20:10:30.164Z,5.37
2019-01-26T20:13:00.619Z,6.07
2019-01-26T20:15:29.704Z,5.43
2019-01-26T20:18:03.290Z,5.30
2019-01-26T20:20:36.744Z,2.93
2019-01-26T20:23:07.350Z,5.67
2019-01-26T20:25:36.537Z,4.87
2019-01-26T20:28:08.037Z,6.73
2019-01-26T20:30:38.577Z,3.63
2019-01-26T20:33:07.938Z,4.97
2019-01-26T20:35:44.334Z,8.60
2019-01-26T20:38:15.810Z,10.67
2019-01-26T20:40:45.028Z,6.93
2019-01-26T20:43:14.142Z,6.80
2019-01-26T20:45:47.004Z,3.73
2019-01-26T20:48:16.339Z,4.57
2019-01-26T20:50:48.051Z,7.17
2019-01-26T20:53:17.178Z,6.43
2019-01-26T20:55:47.530Z,4.47
2019-01-26T20:58:21.787Z,5.47
2019-01-26T21:00:53.372Z,5.63
2019-01-26T21:03:22.486Z,7.53
2019-01-26T21:05:53.067Z,5.30
2019-01-26T21:08:26.686Z,8.93
2019-01-26T21:10:58.361Z,3.80
2019-01-26T21:13:30.581Z,3.60
2019-01-26T21:15:59.736Z,4.13
2019-01-26T21:18:28.971Z,4.80
2019-01-26T21:20:59.156Z,3.13
2019-01-26T21:23:29.369Z,2.97
2019-01-26T21:25:58.650Z,4.43
2019-01-26T21:28:31.536Z,4.40
2019-01-26T21:31:04.387Z,3.70
2019-01-26T21:33:35.417Z,3.23
2019-01-26T21:36:05.636Z,7.80
2019-01-26T21:38:34.758Z,8.60
2019-01-26T21:41:05.678Z,10.47
2019-01-26T21:43:36.310Z,6.63
2019-01-26T21:46:06.198Z,5.87
2019-01-26T21:48:45.238Z,5.37
2019-01-26T21:51:23.516Z,8.53
2019-01-26T21:53:56.792Z,5.50
2019-01-26T21:56:23.856Z,5.30
2019-01-26T21:58:54.983Z,5.03
2019-01-26T22:01:25.410Z,4.93
2019-01-26T22:03:54.629Z,3.73
2019-01-26T22:06:23.919Z,4.27
2019-01-26T22:08:53.063Z,2.77
2019-01-26T22:11:23.436Z,3.37
2019-01-26T22:13:52.583Z,2.37
2019-01-26T22:16:24.262Z,5.73
2019-01-26T22:18:54.850Z,4.27
2019-01-26T22:21:24.319Z,3.93
2019-01-26T22:23:53.538Z,4.93
2019-01-26T22:26:22.883Z,3.97
2019-01-26T22:28:56.023Z,3.73
2019-01-26T22:31:27.583Z,4.23
2019-01-26T22:33:56.682Z,4.23
2019-01-26T22:36:26.914Z,3.23
2019-01-26T22:38:56.103Z,4.07
2019-01-26T22:41:26.768Z,3.30
2019-01-26T22:43:56.611Z,4.00
2019-01-26T22:46:37.822Z,3.13
2019-01-26T22:49:10.044Z,4.00
2019-01-26T22:51:45.009Z,2.77
2019-01-26T22:54:15.478Z,2.80
2019-01-26T22:56:44.645Z,4.33
2019-01-26T22:59:16.168Z,3.27
2019-01-26T23:01:52.039Z,3.30
2019-01-26T23:04:58.448Z,4.43
2019-01-26T23:07:46.994Z,2.67
2019-01-26T23:10:42.907Z,4.10
2019-01-26T23:13:42.941Z,2.77
2019-01-26T23:16:57.057Z,2.40
2019-01-26T23:19:37.262Z,3.73
2019-01-26T23:22:52.280Z,2.90
2019-01-26T23:26:14.230Z,3.70
2019-01-26T23:29:04.562Z,5.30
2019-01-26T23:31:33.943Z,2.83
2019-01-26T23:34:04.253Z,3.20
2019-01-26T23:36:35.153Z,3.93
2019-01-26T23:39:08.019Z,5.20
2019-01-26T23:41:38.290Z,2.67
2019-01-26T23:44:08.236Z,3.47
2019-01-26T23:46:37.577Z,3.17
2019-01-26T23:49:08.347Z,3.70
2019-01-26T23:51:37.954Z,2.97
2019-01-26T23:54:11.401Z,2.47
2019-01-26T23:56:40.890Z,3.57
2019-01-26T23:59:10.186Z,4.17
